Time;durP1;ratioP1;P1;durP2;ratioP2;P2;SDS_P1;SDS_P2;PMS_P1;PMS_P2;Temp;Humidity;BMP_temperature;BMP_pressure;BME280_temperature;BME280_humidity;BME280_pressure;Samples;Min_cycle;Max_cycle;Signal;HPM_P1;HPM_P2
2022/10/01 00:01:03;;;;;;;;;;;;;;;21.82;50.40;98968.72;4483098;32;34201;-86
2022/10/01 00:03:31;;;;;;;;;;;;;;;21.09;51.45;98975.59;4467254;32;34083;-90
2022/10/01 00:05:59;;;;;;;;;;;;;;;21.42;51.35;99058.94;4485323;32;34289;-91
2022/10/01 00:08:26;;;;;;;;;;;;;;;19.99;55.78;99097.38;4469151;32;34246;-87
2022/10/01 00:10:54;;;;;;;;;;;;;;;20.53;54.13;99030.97;4482098;32;34133;-96
2022/10/01 00:13:21;;;;;;;;;;;;;;;18.83;59.79;98995.09;4482441;32;34898;-91
2022/10/01 00:15:48;;;;;;;;;;;;;;;18.16;62.06;98994.78;4483180;32;34411;-86
2022/10/01 00:18:15;;;;;;;;;;;;;;;19.02;59.81;98979.78;4481578;32;34943;-90
2022/10/01 00:20:43;;;;;;;;;;;;;;;20.08;56.40;98977.84;4482806;32;33072;-86
2022/10/01 00:23:10;;;;;;;;;;;;;;;20.55;54.83;98970.31;4476732;32;34365;-86
2022/10/01 00:25:38;;;;;;;;;;;;;;;21.13;53.16;98976.34;4455427;32;33955;-87
2022/10/01 00:28:05;;;;;;;;;;;;;;;21.55;52.09;98994.31;4475821;32;33780;-85
2022/10/01 00:30:32;;;;;;;;;;;;;;;21.77;51.46;98982.09;4482854;32;32758;-95
2022/10/01 00:33:06;;;;;;;;;;;;;;;21.62;51.83;98987.91;4482830;32;34091;-92
2022/10/01 00:35:33;;;;;;;;;;;;;;;22.08;50.63;98983.59;4475519;32;34259;-93
2022/10/01 00:38:00;;;;;;;;;;;;;;;22.27;50.10;98968.81;4468469;32;33616;-94
2022/10/01 00:40:28;;;;;;;;;;;;;;;22.64;49.19;98971.84;4482759;32;34016;-87
2022/10/01 00:42:55;;;;;;;;;;;;;;;22.73;48.99;98984.66;4468516;32;34905;-90
2022/10/01 00:45:22;;;;;;;;;;;;;;;22.90;48.38;98976.09;4483029;32;34091;-95
2022/10/01 00:47:50;;;;;;;;;;;;;;;22.78;48.58;98980.09;4482477;32;35482;-88
2022/10/01 00:50:23;;;;;;;;;;;;;;;22.34;49.34;98967.66;4467779;32;33041;-91
2022/10/01 00:52:51;;;;;;;;;;;;;;;22.59;48.73;98969.38;4468469;32;35634;-87
2022/10/01 00:55:20;;;;;;;;;;;;;;;22.53;48.70;98969.59;4482886;32;35018;-86
2022/10/01 00:57:47;;;;;;;;;;;;;;;22.87;48.10;98962.97;4468028;32;34982;-86
2022/10/01 01:00:14;;;;;;;;;;;;;;;23.05;47.53;98960.47;4482217;32;34297;-87
2022/10/01 01:02:42;;;;;;;;;;;;;;;23.03;47.63;98958.81;4482325;32;34240;-93
2022/10/01 01:05:11;;;;;;;;;;;;;;;23.01;47.55;98964.19;4482174;32;33899;-87
2022/10/01 01:07:41;;;;;;;;;;;;;;;23.23;46.98;98960.66;4481944;32;34385;-86
2022/10/01 01:10:09;;;;;;;;;;;;;;;23.30;46.81;98962.97;4479279;32;33297;-87
2022/10/01 01:12:44;;;;;;;;;;;;;;;23.46;46.37;98967.59;4472595;32;34156;-87
2022/10/01 01:15:24;;;;;;;;;;;;;;;23.37;46.40;98971.47;4482093;32;35350;-94
2022/10/01 01:18:10;;;;;;;;;;;;;;;23.15;46.90;98968.91;4467288;32;34449;-87
2022/10/01 01:20:44;;;;;;;;;;;;;;;23.39;46.35;98966.16;4474485;32;33758;-88
2022/10/01 01:23:14;;;;;;;;;;;;;;;23.47;46.13;98979.91;4467681;32;34813;-95
2022/10/01 01:26:00;;;;;;;;;;;;;;;23.33;46.44;98966.41;4482447;32;35350;-87
2022/10/01 01:28:31;;;;;;;;;;;;;;;23.40;46.28;98974.00;4468700;32;34217;-86
2022/10/01 01:31:00;;;;;;;;;;;;;;;23.23;46.49;98974.72;4469200;32;31678;-93
2022/10/01 01:33:27;;;;;;;;;;;;;;;23.27;46.42;98976.31;4484762;32;35057;-88
2022/10/01 01:35:56;;;;;;;;;;;;;;;23.42;46.19;98976.59;4470002;32;33915;-87
2022/10/01 01:38:27;;;;;;;;;;;;;;;23.00;47.16;98961.59;4469972;32;34113;-95
2022/10/01 01:40:56;;;;;;;;;;;;;;;22.81;47.66;98972.91;4469731;32;34020;-88
2022/10/01 01:43:25;;;;;;;;;;;;;;;23.12;46.86;98971.66;4454467;32;34102;-88
2022/10/01 01:45:53;;;;;;;;;;;;;;;23.36;46.33;98968.91;4473605;32;35112;-86
2022/10/01 01:48:21;;;;;;;;;;;;;;;23.51;45.98;98971.75;4470608;32;34838;-89
2022/10/01 01:51:15;;;;;;;;;;;;;;;22.43;48.63;98962.97;4476700;32;33455;-95
2022/10/01 01:53:42;;;;;;;;;;;;;;;23.35;46.31;98962.78;4468508;32;34307;-87
2022/10/01 01:56:10;;;;;;;;;;;;;;;23.33;46.37;98943.44;4483920;32;34210;-92
2022/10/01 01:58:37;;;;;;;;;;;;;;;23.26;46.60;98940.22;4483280;32;34997;-88
2022/10/01 02:01:04;;;;;;;;;;;;;;;23.34;46.46;98939.91;4484046;32;34060;-93
2022/10/01 02:03:32;;;;;;;;;;;;;;;23.48;46.11;98944.56;4483964;32;34814;-95
2022/10/01 02:06:11;;;;;;;;;;;;;;;21.93;50.24;98944.56;4469516;32;34795;-86
2022/10/01 02:08:46;;;;;;;;;;;;;;;22.15;49.58;98929.69;4468847;32;34231;-85
2022/10/01 02:11:30;;;;;;;;;;;;;;;22.02;50.02;98918.72;4460396;32;33271;-96
2022/10/01 02:14:11;;;;;;;;;;;;;;;22.14;49.93;98924.47;4470059;32;35076;-87
2022/10/01 02:16:38;;;;;;;;;;;;;;;21.20;52.64;98927.78;4469172;32;34500;-91
2022/10/01 02:19:08;;;;;;;;;;;;;;;21.68;51.43;98944.63;4482921;32;34286;-92
2022/10/01 02:21:54;;;;;;;;;;;;;;;21.83;51.02;98950.19;4473317;32;32798;-94
2022/10/01 02:24:25;;;;;;;;;;;;;;;21.27;52.49;98960.09;4479419;32;35060;-95
2022/10/01 02:26:52;;;;;;;;;;;;;;;20.79;53.41;98964.28;4469071;32;34460;-87
2022/10/01 02:29:20;;;;;;;;;;;;;;;20.69;54.42;98962.88;4469167;32;34102;-87
2022/10/01 02:31:48;;;;;;;;;;;;;;;20.06;55.46;98955.97;4456590;32;33366;-86
2022/10/01 02:34:15;;;;;;;;;;;;;;;21.20;52.53;98948.87;4468812;32;34096;-92
2022/10/01 02:36:46;;;;;;;;;;;;;;;21.28;52.54;98960.00;4468982;32;34099;-86
2022/10/01 02:39:14;;;;;;;;;;;;;;;21.25;52.71;98961.91;4483382;32;34956;-96
2022/10/01 02:41:41;;;;;;;;;;;;;;;21.34;51.92;98966.91;4456528;32;33421;-87
2022/10/01 02:44:09;;;;;;;;;;;;;;;21.55;51.58;98962.66;4469339;32;34878;-87
2022/10/01 02:46:40;;;;;;;;;;;;;;;21.61;51.16;98959.81;4468985;32;34426;-87
2022/10/01 02:49:07;;;;;;;;;;;;;;;20.06;55.72;98961.22;4469488;32;33677;-86
2022/10/01 02:51:47;;;;;;;;;;;;;;;21.48;52.01;98964.66;4469602;32;32928;-96
2022/10/01 02:54:17;;;;;;;;;;;;;;;21.70;51.33;98969.16;4483839;32;34550;-95
2022/10/01 02:59:30;;;;;;;;;;;;;;;21.30;52.21;98981.06;4483859;32;34237;-85
2022/10/01 03:01:57;;;;;;;;;;;;;;;20.47;54.71;98977.56;4467001;32;33459;-90
2022/10/01 03:04:24;;;;;;;;;;;;;;;20.76;54.19;98979.31;4483455;32;35201;-88
2022/10/01 03:06:52;;;;;;;;;;;;;;;21.27;52.63;98970.63;4483534;32;34362;-87
2022/10/01 03:09:19;;;;;;;;;;;;;;;19.80;56.96;98972.47;4483522;32;34167;-94
2022/10/01 03:11:46;;;;;;;;;;;;;;;19.78;57.16;98966.41;4483350;32;33352;-86
2022/10/01 03:14:13;;;;;;;;;;;;;;;19.50;58.21;98955.75;4482992;32;34977;-86
2022/10/01 03:16:40;;;;;;;;;;;;;;;20.48;55.34;98952.94;4483020;32;34115;-86
2022/10/01 03:19:07;;;;;;;;;;;;;;;19.81;56.92;98969.84;4483250;32;33926;-87
2022/10/01 03:21:35;;;;;;;;;;;;;;;20.61;55.13;98967.50;4482797;32;34258;-96
2022/10/01 03:24:02;;;;;;;;;;;;;;;20.06;56.08;98983.12;4483011;32;34308;-88
2022/10/01 03:26:30;;;;;;;;;;;;;;;20.26;55.87;98994.84;4483798;32;34509;-92
2022/10/01 03:28:57;;;;;;;;;;;;;;;19.92;57.02;99001.06;4483468;32;34001;-87
2022/10/01 03:31:24;;;;;;;;;;;;;;;20.42;55.36;99027.75;4484790;32;34238;-87
2022/10/01 03:33:52;;;;;;;;;;;;;;;20.64;54.74;99005.13;4479288;32;34214;-86
2022/10/01 03:36:19;;;;;;;;;;;;;;;20.55;54.85;99012.47;4484020;32;37223;-86
2022/10/01 03:38:46;;;;;;;;;;;;;;;20.26;55.90;99022.03;4483347;32;34241;-86
2022/10/01 03:41:13;;;;;;;;;;;;;;;20.97;54.02;99026.06;4483778;32;33489;-86
2022/10/01 03:43:41;;;;;;;;;;;;;;;21.22;53.33;99002.44;4478819;32;34654;-86
2022/10/01 03:46:08;;;;;;;;;;;;;;;21.77;52.04;99005.84;4483156;32;34855;-87
2022/10/01 03:48:35;;;;;;;;;;;;;;;22.19;50.98;98989.38;4483014;32;34535;-86
2022/10/01 03:51:03;;;;;;;;;;;;;;;22.00;51.31;98993.59;4482435;32;33251;-96
2022/10/01 03:53:30;;;;;;;;;;;;;;;22.39;50.42;98986.00;4482761;32;34190;-90
2022/10/01 03:55:58;;;;;;;;;;;;;;;22.14;50.67;98995.75;4483406;32;34387;-86
2022/10/01 03:58:25;;;;;;;;;;;;;;;22.03;50.73;98983.78;4456048;32;32982;-86
2022/10/01 04:00:56;;;;;;;;;;;;;;;21.80;51.46;98973.19;4483366;32;34048;-86
2022/10/01 04:03:24;;;;;;;;;;;;;;;20.24;55.76;98965.09;4468501;32;34206;-88
2022/10/01 04:05:51;;;;;;;;;;;;;;;20.81;54.12;98967.72;4468727;32;34498;-86
2022/10/01 04:08:18;;;;;;;;;;;;;;;20.96;53.94;98962.88;4483150;32;34277;-86
2022/10/01 04:10:50;;;;;;;;;;;;;;;21.31;53.16;98966.97;4483427;32;34102;-88
2022/10/01 04:13:17;;;;;;;;;;;;;;;21.82;51.85;98964.31;4483593;32;35141;-96
2022/10/01 04:15:45;;;;;;;;;;;;;;;22.28;50.65;98952.09;4483795;32;35203;-96
2022/10/01 04:18:12;;;;;;;;;;;;;;;22.34;50.52;98958.88;4469044;32;34792;-91
2022/10/01 04:20:40;;;;;;;;;;;;;;;22.68;49.79;98945.22;4471579;32;34265;-91
2022/10/01 04:23:07;;;;;;;;;;;;;;;22.12;51.10;98956.16;4470696;32;35154;-95
2022/10/01 04:25:35;;;;;;;;;;;;;;;22.58;49.94;98950.03;4484168;32;33754;-85
2022/10/01 04:28:03;;;;;;;;;;;;;;;22.16;50.94;98947.28;4484705;32;33729;-87
2022/10/01 04:30:31;;;;;;;;;;;;;;;21.67;52.20;98956.06;4485023;32;33183;-87
2022/10/01 04:32:59;;;;;;;;;;;;;;;22.02;51.35;98965.37;4471291;32;35460;-93
2022/10/01 04:35:26;;;;;;;;;;;;;;;22.39;50.20;98953.44;4484169;32;34528;-86
2022/10/01 04:37:54;;;;;;;;;;;;;;;22.56;49.46;98946.56;4473569;32;34025;-96
2022/10/01 04:40:22;;;;;;;;;;;;;;;22.54;49.61;98947.53;4469140;32;32495;-87
2022/10/01 04:42:49;;;;;;;;;;;;;;;21.95;51.03;98959.44;4483021;32;35202;-86
2022/10/01 04:45:16;;;;;;;;;;;;;;;22.36;49.84;98953.56;4482363;32;34637;-96
2022/10/01 04:47:50;;;;;;;;;;;;;;;22.54;49.36;98956.34;4482559;32;34206;-87
2022/10/01 04:50:17;;;;;;;;;;;;;;;22.39;49.75;98964.87;4443833;32;32115;-91
2022/10/01 04:52:47;;;;;;;;;;;;;;;22.50;49.14;98959.16;4468993;32;34314;-96
2022/10/01 04:55:15;;;;;;;;;;;;;;;20.26;54.72;98966.75;4482625;32;35264;-87
2022/10/01 04:57:42;;;;;;;;;;;;;;;21.93;50.97;98969.19;4456698;32;33188;-88
2022/10/01 05:00:11;;;;;;;;;;;;;;;22.03;50.67;98973.22;4485816;32;33090;-88
2022/10/01 05:02:38;;;;;;;;;;;;;;;22.41;49.73;98973.59;4480188;32;34178;-88
2022/10/01 05:05:06;;;;;;;;;;;;;;;22.37;49.71;98965.84;4484722;32;34432;-88
2022/10/01 05:07:33;;;;;;;;;;;;;;;22.79;48.65;98974.72;4472572;32;32693;-95
2022/10/01 05:10:01;;;;;;;;;;;;;;;22.34;49.68;99002.00;4475004;32;33667;-87
2022/10/01 05:12:28;;;;;;;;;;;;;;;22.27;50.08;99020.78;4468343;32;35680;-87
2022/10/01 05:14:56;;;;;;;;;;;;;;;21.47;52.32;99025.34;4469991;32;33917;-86
2022/10/01 05:17:23;;;;;;;;;;;;;;;21.34;53.06;99009.09;4469699;32;34512;-86
2022/10/01 05:19:50;;;;;;;;;;;;;;;21.81;51.79;99014.50;4482280;32;32947;-86
2022/10/01 05:22:18;;;;;;;;;;;;;;;22.17;50.90;99022.06;4480381;32;34883;-85
2022/10/01 05:24:46;;;;;;;;;;;;;;;22.08;51.19;99018.78;4481193;32;34854;-86
2022/10/01 05:27:13;;;;;;;;;;;;;;;22.19;50.89;99005.22;4475486;32;33973;-94
2022/10/01 05:29:41;;;;;;;;;;;;;;;21.60;52.66;99006.44;4467748;32;34190;-86
2022/10/01 05:32:08;;;;;;;;;;;;;;;22.17;51.07;98995.66;4467701;32;33201;-88
2022/10/01 05:34:36;;;;;;;;;;;;;;;21.23;53.77;98992.75;4481857;32;34858;-89
2022/10/01 05:37:03;;;;;;;;;;;;;;;21.12;54.31;98985.19;4480873;32;34786;-85
2022/10/01 05:39:31;;;;;;;;;;;;;;;21.49;53.11;98994.53;4481831;32;33931;-85
2022/10/01 05:42:01;;;;;;;;;;;;;;;21.47;53.11;98993.72;4481222;32;34319;-86
2022/10/01 05:44:36;;;;;;;;;;;;;;;22.18;51.17;99008.78;4461066;32;35432;-87
2022/10/01 05:47:05;;;;;;;;;;;;;;;21.04;54.73;98995.97;4482141;32;34213;-89
2022/10/01 05:49:32;;;;;;;;;;;;;;;21.75;52.61;99009.47;4482050;32;34108;-95
2022/10/01 05:51:59;;;;;;;;;;;;;;;21.76;52.61;99014.66;4482343;32;35033;-85
2022/10/01 05:54:28;;;;;;;;;;;;;;;21.76;52.51;99006.75;4481050;32;35264;-86
2022/10/01 05:56:55;;;;;;;;;;;;;;;21.46;53.52;98994.63;4455235;32;34823;-86
2022/10/01 05:59:23;;;;;;;;;;;;;;;20.14;57.24;98980.28;4466015;32;33043;-85
2022/10/01 06:01:57;;;;;;;;;;;;;;;21.45;53.71;98977.09;4478931;32;34031;-95
2022/10/01 06:04:24;;;;;;;;;;;;;;;22.01;52.17;98971.53;4466904;32;34152;-94
2022/10/01 06:06:52;;;;;;;;;;;;;;;22.01;52.14;98966.25;4478291;32;34806;-85
2022/10/01 06:09:19;;;;;;;;;;;;;;;22.20;51.54;98954.16;4481499;32;33284;-84
2022/10/01 06:11:47;;;;;;;;;;;;;;;22.20;51.50;98946.22;4481797;32;33732;-86
2022/10/01 06:14:16;;;;;;;;;;;;;;;21.79;52.46;98945.09;4467305;32;32404;-89
2022/10/01 06:16:43;;;;;;;;;;;;;;;21.64;52.90;98943.88;4468854;32;33437;-88
2022/10/01 06:19:11;;;;;;;;;;;;;;;21.36;53.75;98941.31;4484164;32;33411;-90
2022/10/01 06:21:38;;;;;;;;;;;;;;;21.21;54.23;98934.78;4484097;32;34061;-94
2022/10/01 06:24:08;;;;;;;;;;;;;;;21.08;54.59;98936.13;4469903;32;34427;-86
2022/10/01 06:26:35;;;;;;;;;;;;;;;21.81;52.51;98959.09;4483752;32;34842;-87
2022/10/01 06:29:02;;;;;;;;;;;;;;;21.91;52.33;98972.81;4483673;32;33255;-94
2022/10/01 06:31:29;;;;;;;;;;;;;;;22.13;51.92;98980.81;4484016;32;34259;-86
2022/10/01 06:33:57;;;;;;;;;;;;;;;22.33;51.60;98973.03;4484028;32;35167;-92
2022/10/01 06:36:24;;;;;;;;;;;;;;;22.72;50.55;98973.25;4483481;32;34828;-86
2022/10/01 06:38:51;;;;;;;;;;;;;;;22.60;50.95;98971.09;4483655;32;34196;-86
2022/10/01 06:41:19;;;;;;;;;;;;;;;21.71;53.53;98977.03;4483779;32;34300;-96
2022/10/01 06:43:47;;;;;;;;;;;;;;;22.37;51.78;98976.41;4469997;32;34462;-92
2022/10/01 06:46:14;;;;;;;;;;;;;;;22.51;51.40;98969.69;4484004;32;33564;-86
2022/10/01 06:48:41;;;;;;;;;;;;;;;22.56;51.27;98977.41;4484232;32;34158;-87
2022/10/01 06:51:09;;;;;;;;;;;;;;;22.17;52.38;98985.94;4483737;32;35064;-88
2022/10/01 06:53:36;;;;;;;;;;;;;;;22.27;52.17;98992.59;4468814;32;35119;-86
2022/10/01 06:56:04;;;;;;;;;;;;;;;20.70;56.96;98990.91;4483907;32;34920;-93
2022/10/01 06:58:36;;;;;;;;;;;;;;;21.46;54.45;98986.72;4468681;32;33346;-87
2022/10/01 07:01:03;;;;;;;;;;;;;;;20.90;56.23;98983.22;4482578;32;34064;-94
2022/10/01 07:03:31;;;;;;;;;;;;;;;20.71;56.92;98991.78;4483577;32;34211;-87
2022/10/01 07:06:02;;;;;;;;;;;;;;;21.71;54.03;98979.69;4480460;32;34921;-86
2022/10/01 07:08:30;;;;;;;;;;;;;;;21.18;55.39;98971.81;4465567;32;34160;-92
2022/10/01 07:11:01;;;;;;;;;;;;;;;21.96;53.46;98966.44;4468298;32;34783;-85
2022/10/01 07:13:28;;;;;;;;;;;;;;;21.72;54.27;98962.91;4476336;32;35172;-90
2022/10/01 07:15:56;;;;;;;;;;;;;;;20.98;56.55;98961.03;4483622;32;34822;-86
2022/10/01 07:18:23;;;;;;;;;;;;;;;20.90;56.72;98961.28;4483562;32;33245;-87
2022/10/01 07:20:50;;;;;;;;;;;;;;;21.94;53.49;98944.53;4483459;32;33963;-90
2022/10/01 07:23:17;;;;;;;;;;;;;;;21.57;54.27;98963.47;4468588;32;35362;-87
2022/10/01 07:25:44;;;;;;;;;;;;;;;21.89;53.57;98969.34;4476676;32;34230;-94
2022/10/01 07:28:15;;;;;;;;;;;;;;;21.90;53.59;98956.13;4483965;32;33216;-90
2022/10/01 07:30:46;;;;;;;;;;;;;;;20.74;56.91;98960.94;4457083;32;34066;-87
2022/10/01 07:33:16;;;;;;;;;;;;;;;21.17;55.64;98948.97;4483852;32;34475;-94
2022/10/01 07:35:46;;;;;;;;;;;;;;;21.25;55.26;98946.97;4468250;32;33739;-90
2022/10/01 07:38:13;;;;;;;;;;;;;;;20.44;58.36;98946.06;4484082;32;33031;-88
2022/10/01 07:40:40;;;;;;;;;;;;;;;20.58;58.04;98941.25;4468889;32;35156;-86
2022/10/01 07:43:08;;;;;;;;;;;;;;;19.86;60.50;98946.88;4483553;32;34092;-96
2022/10/01 07:45:35;;;;;;;;;;;;;;;20.84;57.28;98951.84;4470121;32;35118;-94
2022/10/01 07:48:03;;;;;;;;;;;;;;;21.26;56.11;98946.03;4484635;32;33080;-95
2022/10/01 07:50:30;;;;;;;;;;;;;;;20.93;56.88;98947.16;4483969;32;35017;-94
2022/10/01 07:52:57;;;;;;;;;;;;;;;21.41;55.61;98954.38;4482360;32;34059;-88
2022/10/01 07:55:26;;;;;;;;;;;;;;;21.51;55.41;98951.34;4467937;32;34771;-88
2022/10/01 07:57:55;;;;;;;;;;;;;;;21.86;54.30;98954.53;4468929;32;33008;-87
2022/10/01 08:00:25;;;;;;;;;;;;;;;21.86;54.52;98955.38;4467929;32;33740;-87
2022/10/01 08:02:54;;;;;;;;;;;;;;;21.69;54.82;98952.47;4482963;32;34146;-86
2022/10/01 08:05:29;;;;;;;;;;;;;;;21.30;56.00;98955.56;4472989;32;34571;-90
2022/10/01 08:07:57;;;;;;;;;;;;;;;21.59;55.19;98953.72;4487261;32;33259;-88
2022/10/01 08:10:24;;;;;;;;;;;;;;;22.21;53.71;98944.44;4457720;32;34366;-90
2022/10/01 08:12:57;;;;;;;;;;;;;;;22.37;53.42;98936.78;4464819;32;34345;-90
2022/10/01 08:15:25;;;;;;;;;;;;;;;22.22;53.84;98948.81;4466805;32;33372;-90
2022/10/01 08:17:52;;;;;;;;;;;;;;;22.49;53.18;98933.66;4468532;32;33981;-87
2022/10/01 08:20:20;;;;;;;;;;;;;;;22.52;53.15;98939.69;4474942;32;33581;-90
2022/10/01 08:22:47;;;;;;;;;;;;;;;22.69;52.80;98946.97;4467981;32;34421;-89
2022/10/01 08:25:14;;;;;;;;;;;;;;;22.47;53.45;98941.66;4480479;32;34304;-89
2022/10/01 08:27:41;;;;;;;;;;;;;;;22.58;52.75;98933.31;4473885;32;31547;-88
2022/10/01 08:30:09;;;;;;;;;;;;;;;22.51;53.18;98926.56;4470657;32;34003;-94
2022/10/01 08:32:36;;;;;;;;;;;;;;;22.02;54.54;98915.22;4465092;32;34207;-89
2022/10/01 08:35:03;;;;;;;;;;;;;;;22.95;52.13;98915.97;4469978;32;34067;-89
2022/10/01 08:37:31;;;;;;;;;;;;;;;21.02;57.57;98920.50;4482934;32;33504;-89
2022/10/01 08:39:58;;;;;;;;;;;;;;;20.65;58.91;98919.09;4481963;32;35186;-92
2022/10/01 08:42:32;;;;;;;;;;;;;;;21.70;56.01;98914.62;4481833;32;34701;-92
2022/10/01 08:45:01;;;;;;;;;;;;;;;20.89;58.46;98915.62;4456257;32;35428;-89
2022/10/01 08:47:29;;;;;;;;;;;;;;;20.53;59.18;98908.91;4455737;32;33257;-92
2022/10/01 08:49:59;;;;;;;;;;;;;;;21.57;56.64;98908.94;4468564;32;35035;-90
2022/10/01 08:52:27;;;;;;;;;;;;;;;21.78;56.19;98904.66;4465644;32;33959;-90
2022/10/01 08:54:59;;;;;;;;;;;;;;;22.32;54.84;98903.50;4466430;32;33976;-92
2022/10/01 08:57:30;;;;;;;;;;;;;;;22.11;55.40;98909.56;4466421;32;33228;-92
2022/10/01 08:59:58;;;;;;;;;;;;;;;22.50;54.52;98898.41;4468828;32;33757;-95
2022/10/01 09:02:25;;;;;;;;;;;;;;;22.86;53.73;98908.41;4473660;32;34187;-95
2022/10/01 09:04:53;;;;;;;;;;;;;;;23.19;52.57;98899.09;4475544;32;33796;-89
2022/10/01 09:07:50;;;;;;;;;;;;;;;23.29;52.53;98897.75;4457708;32;33047;-93
2022/10/01 09:10:23;;;;;;;;;;;;;;;23.31;52.62;98895.06;4483108;32;35061;-94
2022/10/01 09:13:09;;;;;;;;;;;;;;;23.33;52.62;98897.63;4468908;32;35156;-91
2022/10/01 09:15:40;;;;;;;;;;;;;;;23.51;52.35;98902.09;4471265;32;33830;-94
2022/10/01 09:18:14;;;;;;;;;;;;;;;22.13;55.51;98905.09;4465675;32;33309;-94
2022/10/01 09:20:42;;;;;;;;;;;;;;;22.91;53.48;98902.03;4467999;32;34307;-94
2022/10/01 09:23:17;;;;;;;;;;;;;;;22.36;55.20;98901.59;4452782;32;34249;-96
2022/10/01 09:25:46;;;;;;;;;;;;;;;22.66;55.76;98899.50;4433428;32;33437;-93
2022/10/01 09:28:20;;;;;;;;;;;;;;;23.11;54.16;98900.31;4473389;32;34086;-90
2022/10/01 09:30:54;;;;;;;;;;;;;;;23.78;52.35;98882.38;4483808;32;34662;-93
2022/10/01 09:33:23;;;;;;;;;;;;;;;21.67;58.16;98896.28;4469939;32;34166;-88
2022/10/01 09:36:02;;;;;;;;;;;;;;;23.41;53.76;98890.19;4441402;32;33266;-95
2022/10/01 09:38:40;;;;;;;;;;;;;;;22.14;56.88;98896.28;4467718;32;33309;-94
2022/10/01 09:41:09;;;;;;;;;;;;;;;21.70;57.72;98900.56;4467357;32;33920;-86
2022/10/01 09:43:39;;;;;;;;;;;;;;;22.79;54.96;98889.28;4455963;32;34080;-96
2022/10/01 09:46:13;;;;;;;;;;;;;;;23.12;53.67;98889.69;4484895;32;34688;-89
2022/10/01 09:48:56;;;;;;;;;;;;;;;22.31;56.39;98882.41;4475321;32;33291;-90
2022/10/01 09:51:55;;;;;;;;;;;;;;;22.77;56.09;98889.38;4474696;32;34398;-96
2022/10/01 09:54:26;;;;;;;;;;;;;;;22.37;55.94;98886.63;4442998;32;33509;-94
2022/10/01 09:56:55;;;;;;;;;;;;;;;22.72;55.52;98878.09;4472641;32;32792;-93
2022/10/01 09:59:25;;;;;;;;;;;;;;;22.67;56.03;98880.09;4472244;32;33413;-91
2022/10/01 10:01:55;;;;;;;;;;;;;;;23.03;55.50;98872.44;4469784;32;34093;-92
2022/10/01 10:04:23;;;;;;;;;;;;;;;23.03;54.81;98871.56;4473309;32;34227;-92
2022/10/01 10:06:52;;;;;;;;;;;;;;;23.75;52.97;98865.75;4469192;32;34100;-90
2022/10/01 10:09:20;;;;;;;;;;;;;;;23.91;51.82;98850.91;4481885;32;33505;-91
2022/10/01 10:11:48;;;;;;;;;;;;;;;24.42;50.84;98859.13;4479958;32;34029;-91
2022/10/01 10:14:27;;;;;;;;;;;;;;;24.41;51.01;98858.25;4462193;32;32931;-95
2022/10/01 10:16:55;;;;;;;;;;;;;;;23.59;52.03;98865.56;4479025;32;34292;-96
2022/10/01 10:19:24;;;;;;;;;;;;;;;23.17;53.44;98863.03;4465222;32;33165;-93
2022/10/01 10:21:53;;;;;;;;;;;;;;;24.14;51.80;98863.06;4459288;32;32584;-92
2022/10/01 10:24:23;;;;;;;;;;;;;;;24.06;51.80;98859.06;4471652;32;33978;-92
2022/10/01 10:26:54;;;;;;;;;;;;;;;24.46;52.17;98855.38;4483765;32;34707;-94
2022/10/01 10:29:26;;;;;;;;;;;;;;;23.70;52.45;98855.38;4470695;32;33708;-89
2022/10/01 10:31:54;;;;;;;;;;;;;;;23.87;53.12;98845.84;4469115;32;33917;-88
2022/10/01 10:34:37;;;;;;;;;;;;;;;23.65;53.77;98838.84;4464997;32;33793;-91
2022/10/01 10:37:05;;;;;;;;;;;;;;;23.77;53.69;98843.59;4465897;32;35301;-88
2022/10/01 10:39:36;;;;;;;;;;;;;;;24.15;52.24;98848.88;4474647;32;33144;-92
2022/10/01 10:42:04;;;;;;;;;;;;;;;24.13;53.11;98834.87;4482458;32;33724;-93
2022/10/01 10:44:37;;;;;;;;;;;;;;;24.65;52.35;98840.28;4470152;32;34372;-95
2022/10/01 10:47:06;;;;;;;;;;;;;;;24.10;53.01;98840.31;4470027;32;34192;-95
2022/10/01 10:49:50;;;;;;;;;;;;;;;24.25;51.63;98823.69;4476897;32;33396;-94
2022/10/01 10:52:28;;;;;;;;;;;;;;;24.00;52.83;98829.28;4469366;32;33950;-96
2022/10/01 10:54:58;;;;;;;;;;;;;;;24.78;50.36;98826.44;4470014;32;33598;-93
2022/10/01 10:57:27;;;;;;;;;;;;;;;24.95;50.10;98819.31;4467980;32;34428;-94
2022/10/01 11:00:09;;;;;;;;;;;;;;;24.87;50.36;98813.56;4436859;32;31983;-95
2022/10/01 11:02:38;;;;;;;;;;;;;;;24.41;51.11;98809.72;4466988;32;34867;-93
2022/10/01 11:05:15;;;;;;;;;;;;;;;24.58;51.25;98806.22;4465625;32;35291;-93
2022/10/01 11:07:43;;;;;;;;;;;;;;;24.85;50.67;98802.19;4467028;32;33890;-91
2022/10/01 11:10:29;;;;;;;;;;;;;;;24.52;51.65;98792.34;4482910;32;33565;-94
2022/10/01 11:13:06;;;;;;;;;;;;;;;24.78;51.32;98794.63;4480462;32;32835;-89
2022/10/01 11:15:38;;;;;;;;;;;;;;;25.12;50.51;98778.69;4482381;32;34399;-92
2022/10/01 11:18:25;;;;;;;;;;;;;;;25.26;50.39;98772.66;4477841;32;34121;-89
2022/10/01 11:21:15;;;;;;;;;;;;;;;25.76;48.31;98765.50;4475997;32;34074;-90
2022/10/01 11:23:47;;;;;;;;;;;;;;;24.89;50.45;98771.91;4449050;32;33818;-88
2022/10/01 11:26:33;;;;;;;;;;;;;;;23.74;53.81;98764.31;4469154;32;34014;-88
2022/10/01 11:29:13;;;;;;;;;;;;;;;24.34;52.12;98764.09;4478882;32;33897;-90
2022/10/01 11:31:48;;;;;;;;;;;;;;;23.26;55.10;98757.72;4468186;32;33032;-92
2022/10/01 11:34:22;;;;;;;;;;;;;;;24.16;53.04;98755.25;4469677;32;33563;-93
2022/10/01 11:37:09;;;;;;;;;;;;;;;24.77;52.19;98748.66;4483376;32;35440;-91
2022/10/01 11:39:37;;;;;;;;;;;;;;;25.14;50.94;98739.66;4443983;32;33447;-92
2022/10/01 11:42:05;;;;;;;;;;;;;;;25.48;49.26;98736.03;4459074;32;32842;-93
2022/10/01 11:44:35;;;;;;;;;;;;;;;25.11;50.00;98729.22;4453887;32;34003;-92
2022/10/01 11:47:10;;;;;;;;;;;;;;;25.64;49.56;98725.44;4468115;32;34395;-90
2022/10/01 11:49:43;;;;;;;;;;;;;;;25.66;48.75;98725.34;4477285;32;34028;-90
2022/10/01 11:52:13;;;;;;;;;;;;;;;25.46;49.48;98719.38;4483687;32;33313;-91
2022/10/01 11:54:48;;;;;;;;;;;;;;;24.76;51.83;98729.25;4469360;32;34159;-89
2022/10/01 12:00:09;;;;;;;;;;;;;;;25.85;48.72;98719.91;4471755;32;34933;-93
2022/10/01 12:02:38;;;;;;;;;;;;;;;24.40;51.78;98724.06;4469319;32;34129;-88
2022/10/01 12:05:25;;;;;;;;;;;;;;;25.55;48.82;98711.84;4483207;32;34964;-88
2022/10/01 12:07:52;;;;;;;;;;;;;;;25.54;49.80;98712.78;4484535;32;33977;-94
2022/10/01 12:10:39;;;;;;;;;;;;;;;25.65;48.83;98719.19;4483261;32;34830;-88
2022/10/01 12:13:14;;;;;;;;;;;;;;;25.54;49.11;98713.63;4466676;32;34772;-90
2022/10/01 12:15:44;;;;;;;;;;;;;;;25.68;48.07;98708.41;4456181;32;34585;-94
2022/10/01 12:18:14;;;;;;;;;;;;;;;25.79;48.61;98709.62;4468689;32;34427;-91
2022/10/01 12:20:45;;;;;;;;;;;;;;;26.24;47.67;98710.56;4484295;32;33724;-91
2022/10/01 12:23:14;;;;;;;;;;;;;;;26.05;48.01;98708.13;4470237;32;33074;-88
2022/10/01 12:25:49;;;;;;;;;;;;;;;25.50;49.31;98706.78;4468758;32;35012;-87
2022/10/01 12:28:18;;;;;;;;;;;;;;;25.73;48.50;98708.16;4469176;32;34403;-96
2022/10/01 12:30:52;;;;;;;;;;;;;;;25.60;48.18;98700.00;4470160;32;33904;-86
2022/10/01 12:33:35;;;;;;;;;;;;;;;25.58;48.60;98707.22;4468394;32;33194;-90
2022/10/01 12:36:02;;;;;;;;;;;;;;;25.02;49.43;98705.81;4482928;32;34791;-87
2022/10/01 12:38:40;;;;;;;;;;;;;;;25.15;49.47;98698.94;4455794;32;34366;-87
2022/10/01 12:41:14;;;;;;;;;;;;;;;25.18;49.19;98706.72;4469180;32;33884;-90
2022/10/01 12:43:46;;;;;;;;;;;;;;;24.72;50.13;98701.19;4474352;32;33400;-86
2022/10/01 12:46:19;;;;;;;;;;;;;;;24.73;49.83;98702.06;4464758;32;35157;-87
2022/10/01 12:48:53;;;;;;;;;;;;;;;24.76;49.51;98701.91;4480545;32;34945;-93
2022/10/01 12:51:27;;;;;;;;;;;;;;;25.09;49.12;98688.63;4453211;32;33625;-96
2022/10/01 12:54:13;;;;;;;;;;;;;;;24.85;49.53;98684.63;4480627;32;33394;-89
2022/10/01 12:56:44;;;;;;;;;;;;;;;25.21;49.16;98666.78;4471844;32;35080;-88
2022/10/01 12:59:16;;;;;;;;;;;;;;;25.64;47.56;98664.38;4468507;32;35428;-93
2022/10/01 13:01:43;;;;;;;;;;;;;;;25.64;47.80;98664.38;4479458;32;34776;-88
2022/10/01 13:04:23;;;;;;;;;;;;;;;25.79;47.80;98661.81;4478878;32;34024;-89
2022/10/01 13:07:00;;;;;;;;;;;;;;;25.03;49.97;98650.97;4468580;32;34389;-93
2022/10/01 13:09:33;;;;;;;;;;;;;;;25.66;47.81;98645.72;4468453;32;34026;-89